createdAt,value
2019-06-26T00:11:04.882Z,24.2
2019-06-26T00:23:04.856Z,24.0
2019-06-26T00:35:04.792Z,24.0
2019-06-26T00:47:04.831Z,24.0
2019-06-26T00:59:04.873Z,23.9
2019-06-26T01:11:04.818Z,23.7
2019-06-26T01:23:04.852Z,23.6
2019-06-26T01:35:04.862Z,23.3
2019-06-26T01:47:04.821Z,23.3
2019-06-26T01:59:04.869Z,23.2
2019-06-26T02:11:04.864Z,23.0
2019-06-26T02:23:04.884Z,22.8
2019-06-26T02:35:09.371Z,22.6
2019-06-26T02:47:18.877Z,22.4
2019-06-26T02:59:04.829Z,22.4
2019-06-26T03:11:04.861Z,22.2
2019-06-26T03:23:04.809Z,22.2
2019-06-26T03:35:04.870Z,22.2
2019-06-26T03:47:04.851Z,22.2
2019-06-26T03:59:04.885Z,22.5
2019-06-26T04:11:04.878Z,22.9
2019-06-26T04:23:04.820Z,23.1
2019-06-26T04:35:04.854Z,23.5
2019-06-26T04:47:04.880Z,24.1
2019-06-26T04:59:04.797Z,24.2
2019-06-26T05:11:04.802Z,24.0
2019-06-26T05:23:04.879Z,24.0
2019-06-26T05:35:04.860Z,24.6
2019-06-26T05:47:07.071Z,31.2
2019-06-26T05:59:04.791Z,31.1
2019-06-26T06:11:05.419Z,32.1
2019-06-26T06:23:04.802Z,31.7
2019-06-26T06:35:04.828Z,30.4
2019-06-26T06:47:06.677Z,31.0
2019-06-26T06:59:04.872Z,31.9
2019-06-26T07:11:04.861Z,32.2
2019-06-26T07:23:04.827Z,32.6
2019-06-26T07:35:04.872Z,31.4
2019-06-26T07:47:12.742Z,30.4
2019-06-26T07:59:04.856Z,29.2
2019-06-26T08:11:06.508Z,28.8
2019-06-26T08:23:04.954Z,29.1
2019-06-26T08:35:04.903Z,29.2
2019-06-26T08:47:04.866Z,29.4
2019-06-26T08:59:04.873Z,29.4
2019-06-26T09:11:04.848Z,29.7
2019-06-26T09:23:04.824Z,30.1
2019-06-26T09:35:04.847Z,29.9
2019-06-26T09:47:04.830Z,30.3
2019-06-26T09:59:04.779Z,30.2
2019-06-26T10:11:04.852Z,30.5
2019-06-26T10:23:05.084Z,31.4
2019-06-26T10:35:04.949Z,31.4
2019-06-26T10:47:04.854Z,31.3
2019-06-26T10:59:04.804Z,32.2
2019-06-26T11:11:04.942Z,32.5
2019-06-26T11:23:04.875Z,32.1
2019-06-26T11:35:04.864Z,32.6
2019-06-26T11:47:04.961Z,32.1
2019-06-26T11:59:04.771Z,32.8
2019-06-26T12:11:04.834Z,32.3
2019-06-26T12:23:04.827Z,33.4
2019-06-26T12:35:04.798Z,33.8
2019-06-26T12:47:04.850Z,33.5
2019-06-26T12:59:04.856Z,34.3
2019-06-26T13:11:04.852Z,32.6
2019-06-26T13:23:04.877Z,32.7
2019-06-26T13:35:04.805Z,34.1
2019-06-26T13:47:04.837Z,32.6
2019-06-26T13:59:07.364Z,33.2
2019-06-26T14:11:07.453Z,32.8
2019-06-26T14:23:04.847Z,32.4
2019-06-26T14:35:04.876Z,32.2
2019-06-26T14:47:04.889Z,32.9
2019-06-26T14:59:04.836Z,33.1
2019-06-26T15:11:04.805Z,32.2
2019-06-26T15:23:04.834Z,32.4
2019-06-26T15:35:04.967Z,32.5
2019-06-26T15:47:04.818Z,32.1
2019-06-26T15:59:04.832Z,32.3
2019-06-26T16:11:04.849Z,32.3
2019-06-26T16:23:04.785Z,32.1
2019-06-26T16:35:05.322Z,31.7
2019-06-26T16:47:04.883Z,31.5
2019-06-26T16:59:04.825Z,31.4
2019-06-26T17:11:04.841Z,31.0
2019-06-26T17:23:06.265Z,30.9
2019-06-26T17:35:04.830Z,31.1
2019-06-26T17:47:05.572Z,30.4
2019-06-26T17:59:04.820Z,30.2
2019-06-26T18:11:04.848Z,29.7
2019-06-26T18:23:07.374Z,29.4
2019-06-26T18:35:05.337Z,29.1
2019-06-26T18:47:04.832Z,28.7
2019-06-26T18:59:04.916Z,28.4
2019-06-26T19:11:04.853Z,28.2
2019-06-26T19:23:04.840Z,27.7
2019-06-26T19:35:18.213Z,27.4
2019-06-26T19:47:04.871Z,27.3
2019-06-26T19:59:04.881Z,27.0
2019-06-26T20:11:05.302Z,26.9
2019-06-26T20:23:04.814Z,26.5
2019-06-26T20:35:04.839Z,26.5
2019-06-26T20:47:04.892Z,26.2
2019-06-26T20:59:05.260Z,26.1
2019-06-26T21:11:04.857Z,26.0
2019-06-26T21:23:17.455Z,25.7
2019-06-26T21:35:04.856Z,25.4
2019-06-26T21:47:05.178Z,25.3
2019-06-26T21:59:04.835Z,24.9
2019-06-26T22:11:04.863Z,24.6
2019-06-26T22:23:04.819Z,24.4
2019-06-26T22:35:04.810Z,24.1
2019-06-26T22:47:04.772Z,23.7
2019-06-26T22:59:04.862Z,23.7
2019-06-26T23:11:04.851Z,23.5
2019-06-26T23:23:04.840Z,23.1
2019-06-26T23:35:04.900Z,22.8
2019-06-26T23:47:04.796Z,22.5
2019-06-26T23:59:04.797Z,22.4
